Palo, Minnesota
Current Conditions -  °F | °C
As of 2:31 PM on Monday 24 Nov 2014 (Local Time) from KEVM Reporting Station
Light Snow Light Snow  
Wind Chill:   Ceiling: 1600
Heat Index: 18°   Visibility: 5mi
Dew Point: 12°   Wind: 12mph
Humidity: 79%   Direction: 330°NNW
Pressure: 29.51"   Gusts: 26mph
Location:  47.4622°N, 92.1946°W
Report Text: KEVM 242031Z AUTO 33010G23KT 5SM -SN SCT007 BKN016 M08/M11 A2951 RMK AO2
Loading
Personal Weather Stations






























Interactive Weather Map New forecast layout! Learn more

10-Day Weather Forecast

Advertisements
Track Severe Weather on mobile